Time;durP1;ratioP1;P1;durP2;ratioP2;P2;SDS_P1;SDS_P2;PMS_P1;PMS_P2;Temp;Humidity;BMP_temperature;BMP_pressure;BME280_temperature;BME280_humidity;BME280_pressure;Samples;Min_cycle;Max_cycle;Signal;HPM_P1;HPM_P2
2022/04/14 00:02:10;;;;;;;20.50;12.80;;;12.90;99.90;;;;;;5025586;28;20453;-71
2022/04/14 00:04:39;;;;;;;23.77;13.50;;;12.90;99.90;;;;;;5019177;28;20468;-73
2022/04/14 00:07:07;;;;;;;25.07;15.00;;;12.80;99.90;;;;;;5018278;28;21090;-73
2022/04/14 00:09:36;;;;;;;27.43;15.47;;;12.70;99.90;;;;;;5020267;27;20553;-72
2022/04/14 00:12:05;;;;;;;28.90;14.20;;;12.70;99.90;;;;;;5020745;28;21007;-71
2022/04/14 00:14:33;;;;;;;20.90;13.50;;;12.70;99.90;;;;;;5019695;28;20437;-71
2022/04/14 00:17:02;;;;;;;24.33;14.97;;;12.70;99.90;;;;;;5021057;28;20461;-71
2022/04/14 00:19:30;;;;;;;28.20;16.23;;;12.60;99.90;;;;;;5020684;28;20451;-72
2022/04/14 00:21:58;;;;;;;32.37;16.00;;;12.70;99.90;;;;;;5018702;28;20941;-73
2022/04/14 00:24:26;;;;;;;23.80;15.03;;;12.70;99.90;;;;;;5018199;28;20524;-72
2022/04/14 00:26:54;;;;;;;34.87;16.63;;;12.60;99.90;;;;;;5018511;28;20448;-72
2022/04/14 00:29:21;;;;;;;33.57;16.53;;;12.60;99.90;;;;;;5017255;28;20437;-72
2022/04/14 00:31:50;;;;;;;33.90;15.90;;;12.70;99.90;;;;;;5017749;28;20487;-73
2022/04/14 00:34:19;;;;;;;24.33;13.83;;;12.70;99.90;;;;;;5017092;28;20441;-71
2022/04/14 00:36:47;;;;;;;24.07;15.27;;;12.70;99.90;;;;;;5018649;28;20528;-73
2022/04/14 00:39:15;;;;;;;24.57;15.30;;;12.70;99.90;;;;;;5016568;28;20492;-72
2022/04/14 00:41:43;;;;;;;23.77;12.23;;;12.70;99.90;;;;;;5016374;28;20469;-71
2022/04/14 00:44:11;;;;;;;22.90;12.67;;;12.80;99.90;;;;;;5016338;28;20445;-73
2022/04/14 00:46:39;;;;;;;28.30;13.43;;;12.80;99.90;;;;;;5015325;28;20540;-69
2022/04/14 00:49:07;;;;;;;19.30;13.67;;;12.80;99.90;;;;;;5016130;28;20441;-72
2022/04/14 00:51:36;;;;;;;24.27;13.60;;;12.80;99.90;;;;;;5015739;28;20488;-71
2022/04/14 00:54:04;;;;;;;21.53;13.67;;;12.90;99.90;;;;;;5018090;27;20452;-71
2022/04/14 00:56:32;;;;;;;26.83;14.73;;;12.90;99.90;;;;;;5019484;28;20447;-71
2022/04/14 00:58:59;;;;;;;29.20;14.33;;;12.90;99.90;;;;;;5019134;28;20819;-71
2022/04/14 01:01:27;;;;;;;20.50;13.17;;;12.90;99.90;;;;;;5019718;28;20492;-71
2022/04/14 01:03:56;;;;;;;21.27;14.07;;;12.90;99.90;;;;;;5019810;28;20441;-71
2022/04/14 01:06:24;;;;;;;23.40;13.73;;;12.90;99.90;;;;;;5020097;28;20437;-66
2022/04/14 01:11:40;;;;;;;21.60;13.63;;;12.90;99.90;;;;;;5019001;28;20472;-70
2022/04/14 01:14:08;;;;;;;25.73;13.37;;;13.00;99.90;;;;;;5025475;27;20547;-71
2022/04/14 01:16:36;;;;;;;26.03;14.53;;;12.90;99.90;;;;;;5039138;28;20440;-68
2022/04/14 01:19:04;;;;;;;30.40;14.93;;;13.00;99.90;;;;;;5038575;28;20629;-69
2022/04/14 01:21:34;;;;;;;28.93;15.00;;;12.90;99.90;;;;;;5038634;28;20559;-68
2022/04/14 01:24:03;;;;;;;22.50;14.13;;;13.00;99.90;;;;;;5048829;28;20497;-68
2022/04/14 01:26:31;;;;;;;25.73;14.73;;;12.90;99.90;;;;;;5055829;28;20437;-69
2022/04/14 01:28:59;;;;;;;26.10;14.57;;;12.90;99.90;;;;;;5043192;28;20507;-71
2022/04/14 01:31:27;;;;;;;27.70;17.60;;;12.90;99.90;;;;;;5038603;28;20460;-68
2022/04/14 01:33:55;;;;;;;28.90;15.53;;;12.90;99.90;;;;;;5038647;28;20475;-68
2022/04/14 01:36:23;;;;;;;30.17;17.27;;;13.00;99.90;;;;;;5043911;28;20533;-68
2022/04/14 01:38:51;;;;;;;28.57;16.93;;;13.00;99.90;;;;;;5045845;28;20519;-70
2022/04/14 01:41:20;;;;;;;27.73;16.57;;;12.90;99.90;;;;;;5047507;28;20701;-69
2022/04/14 01:43:48;;;;;;;27.30;17.20;;;12.90;99.90;;;;;;5047958;28;20926;-70
2022/04/14 01:46:15;;;;;;;34.67;19.50;;;12.90;99.90;;;;;;5045654;28;20520;-69
2022/04/14 01:48:43;;;;;;;36.17;21.50;;;12.80;99.90;;;;;;5038022;27;20464;-69
2022/04/14 01:51:11;;;;;;;39.33;21.50;;;12.80;99.90;;;;;;5038377;28;20483;-69
2022/04/14 01:53:39;;;;;;;38.73;21.13;;;12.80;99.90;;;;;;5037737;28;20606;-68
2022/04/14 01:56:07;;;;;;;37.13;23.03;;;12.80;99.90;;;;;;5037708;28;20455;-69
2022/04/14 01:58:36;;;;;;;47.23;24.50;;;12.80;99.90;;;;;;5038057;28;20528;-69
2022/04/14 02:01:06;;;;;;;41.97;24.90;;;12.80;99.90;;;;;;5038187;28;20551;-68
2022/04/14 02:03:36;;;;;;;45.30;26.07;;;12.80;99.90;;;;;;5038691;28;20441;-69
2022/04/14 02:06:04;;;;;;;54.00;29.67;;;12.80;99.90;;;;;;5044942;28;20508;-69
2022/04/14 02:08:31;;;;;;;52.30;29.53;;;12.80;99.90;;;;;;5042599;28;20571;-69
2022/04/14 02:10:59;;;;;;;49.37;29.30;;;12.80;99.90;;;;;;5038518;28;20704;-73
2022/04/14 02:13:27;;;;;;;48.83;28.37;;;12.80;99.90;;;;;;5038788;28;20998;-69
2022/04/14 02:15:56;;;;;;;49.27;29.07;;;12.80;99.90;;;;;;5038271;28;21125;-72
2022/04/14 02:18:24;;;;;;;47.83;29.33;;;12.70;99.90;;;;;;5038151;27;20989;-69
2022/04/14 02:20:52;;;;;;;53.73;29.80;;;12.70;99.90;;;;;;5037438;28;20937;-69
2022/04/14 02:23:20;;;;;;;44.50;27.53;;;12.70;99.90;;;;;;5037164;28;20514;-69
2022/04/14 02:25:48;;;;;;;52.07;27.43;;;12.70;99.90;;;;;;5037316;28;20440;-70
2022/04/14 02:28:16;;;;;;;53.70;31.17;;;12.70;99.90;;;;;;5037255;28;20436;-72
2022/04/14 02:30:44;;;;;;;51.67;29.40;;;12.70;99.90;;;;;;5037465;28;20510;-70
2022/04/14 02:33:13;;;;;;;48.23;30.23;;;12.60;99.90;;;;;;5037135;27;20479;-70
2022/04/14 02:35:41;;;;;;;43.23;27.53;;;12.60;99.90;;;;;;5037381;28;20451;-70
2022/04/14 02:38:09;;;;;;;48.00;27.53;;;12.60;99.90;;;;;;5036553;28;20519;-71
2022/04/14 02:40:37;;;;;;;45.70;27.10;;;12.60;99.90;;;;;;5036694;28;20459;-70
2022/04/14 02:43:05;;;;;;;52.33;26.37;;;12.50;99.90;;;;;;5036818;28;20436;-70
2022/04/14 02:45:33;;;;;;;48.57;28.90;;;12.50;99.90;;;;;;5036735;28;20552;-69
2022/04/14 02:48:01;;;;;;;54.90;29.03;;;12.50;99.90;;;;;;5036414;27;20476;-71
2022/04/14 02:50:30;;;;;;;55.07;29.07;;;12.50;99.90;;;;;;5036738;28;20466;-71
2022/04/14 02:52:58;;;;;;;45.00;27.13;;;12.40;99.90;;;;;;5036234;28;20468;-70
2022/04/14 02:55:26;;;;;;;43.53;25.90;;;12.40;99.90;;;;;;5036697;28;20440;-70
2022/04/14 02:57:54;;;;;;;48.93;28.07;;;12.30;99.90;;;;;;5036491;28;20863;-69
2022/04/14 03:00:22;;;;;;;45.70;25.87;;;12.30;99.90;;;;;;5036586;28;20567;-71
2022/04/14 03:02:50;;;;;;;43.67;26.83;;;12.30;99.90;;;;;;5036930;28;20440;-69
2022/04/14 03:05:18;;;;;;;51.43;26.70;;;12.20;99.90;;;;;;5036512;28;20927;-69
2022/04/14 03:07:48;;;;;;;47.60;26.70;;;12.20;99.90;;;;;;5036572;27;20452;-72
2022/04/14 03:10:16;;;;;;;43.63;25.27;;;12.20;99.90;;;;;;5036186;28;20605;-71
2022/04/14 03:12:46;;;;;;;48.43;26.00;;;12.20;99.90;;;;;;5036837;28;20539;-71
2022/04/14 03:15:14;;;;;;;49.67;25.60;;;12.20;99.90;;;;;;5036526;28;20425;-69
2022/04/14 03:17:43;;;;;;;45.30;26.50;;;12.10;99.90;;;;;;5036404;28;20861;-68
2022/04/14 03:20:11;;;;;;;41.87;23.90;;;12.10;99.90;;;;;;5036740;28;20436;-69
2022/04/14 03:22:39;;;;;;;43.80;23.87;;;12.10;99.90;;;;;;5037452;28;20464;-71
2022/04/14 03:25:11;;;;;;;44.57;25.97;;;12.10;99.90;;;;;;5036854;28;20802;-71
2022/04/14 03:27:38;;;;;;;53.03;26.10;;;12.10;99.90;;;;;;5036307;28;20442;-70
2022/04/14 03:30:10;;;;;;;44.40;25.47;;;12.10;99.90;;;;;;5035925;28;20681;-70
2022/04/14 03:32:43;;;;;;;46.30;25.60;;;12.10;99.90;;;;;;5036571;28;20421;-70
2022/04/14 03:35:12;;;;;;;44.03;24.47;;;12.00;99.90;;;;;;5036483;27;20519;-69
2022/04/14 03:37:40;;;;;;;52.90;26.03;;;12.00;99.90;;;;;;5039187;28;20535;-69
2022/04/14 03:40:11;;;;;;;46.37;26.33;;;12.00;99.90;;;;;;5038822;28;20536;-70
2022/04/14 03:42:39;;;;;;;49.00;25.33;;;12.00;99.90;;;;;;5038413;28;20436;-70
2022/04/14 03:45:08;;;;;;;47.20;26.80;;;12.00;99.90;;;;;;5055263;28;20445;-70
2022/04/14 03:47:36;;;;;;;49.77;27.40;;;12.00;99.90;;;;;;5055514;28;20456;-69
2022/04/14 03:50:04;;;;;;;46.57;26.57;;;12.00;99.90;;;;;;5037432;28;20436;-70
2022/04/14 03:52:32;;;;;;;46.87;26.93;;;11.90;99.90;;;;;;5037154;28;20440;-69
2022/04/14 03:55:00;;;;;;;45.00;26.37;;;11.90;99.90;;;;;;5036750;28;20479;-69
2022/04/14 03:57:29;;;;;;;47.70;25.20;;;11.80;99.90;;;;;;5037439;28;20472;-68
2022/04/14 03:59:57;;;;;;;48.37;26.37;;;11.80;99.90;;;;;;5036385;28;20440;-68
2022/04/14 04:02:25;;;;;;;49.17;27.53;;;11.70;99.90;;;;;;5036632;28;20456;-70
2022/04/14 04:04:59;;;;;;;46.27;27.60;;;11.70;99.90;;;;;;5036815;28;20440;-70
2022/04/14 04:07:27;;;;;;;42.40;24.67;;;11.70;99.90;;;;;;5036821;28;20472;-69
2022/04/14 04:09:54;;;;;;;50.53;27.53;;;11.70;99.90;;;;;;5037331;27;20555;-69
2022/04/14 04:12:22;;;;;;;52.83;27.83;;;11.70;99.90;;;;;;5046440;28;20529;-69
2022/04/14 04:14:51;;;;;;;48.23;27.40;;;11.70;99.90;;;;;;5038222;27;21240;-70
2022/04/14 04:17:19;;;;;;;49.50;28.73;;;11.70;99.90;;;;;;5037113;28;20441;-70
2022/04/14 04:19:47;;;;;;;52.90;28.37;;;11.70;99.90;;;;;;5036668;28;21166;-70
2022/04/14 04:22:15;;;;;;;53.10;27.10;;;11.70;99.90;;;;;;5036333;28;20834;-68
2022/04/14 04:24:43;;;;;;;44.03;25.40;;;11.80;99.90;;;;;;5036016;28;20870;-69
2022/04/14 04:27:11;;;;;;;50.90;28.50;;;11.80;99.90;;;;;;5035661;28;20456;-70
2022/04/14 04:29:39;;;;;;;51.97;28.13;;;11.80;99.90;;;;;;5038706;28;20544;-69
2022/04/14 04:32:09;;;;;;;45.87;24.57;;;11.70;99.90;;;;;;5038797;28;21135;-69
2022/04/14 04:34:37;;;;;;;53.13;26.57;;;11.80;99.90;;;;;;5038973;28;20572;-69
2022/04/14 04:37:06;;;;;;;48.23;27.97;;;11.80;99.90;;;;;;5038485;28;20966;-69
2022/04/14 04:39:34;;;;;;;49.07;27.10;;;11.80;99.90;;;;;;5038539;27;20460;-70
2022/04/14 04:42:02;;;;;;;53.30;27.13;;;11.80;99.90;;;;;;5038298;28;20456;-70
2022/04/14 04:44:30;;;;;;;52.07;27.90;;;11.80;99.90;;;;;;5038102;28;21026;-71
2022/04/14 04:46:57;;;;;;;56.70;26.70;;;11.80;99.90;;;;;;5038876;28;20440;-71
2022/04/14 04:49:27;;;;;;;47.63;26.07;;;11.80;99.90;;;;;;5037940;28;21030;-70
2022/04/14 04:51:55;;;;;;;50.80;27.80;;;11.80;99.90;;;;;;5039130;27;20620;-69
2022/04/14 04:54:22;;;;;;;48.10;26.97;;;11.80;99.90;;;;;;5039196;28;21006;-69
2022/04/14 04:56:51;;;;;;;46.40;26.53;;;11.80;99.90;;;;;;5038272;28;20523;-69
2022/04/14 04:59:21;;;;;;;48.73;27.27;;;11.80;99.90;;;;;;5038173;28;20563;-69
2022/04/14 05:01:49;;;;;;;55.10;26.63;;;11.80;99.90;;;;;;5038372;28;20996;-70
2022/04/14 05:04:17;;;;;;;53.80;25.53;;;11.80;99.90;;;;;;5038292;27;20523;-69
2022/04/14 05:06:46;;;;;;;53.27;27.57;;;11.90;99.90;;;;;;5038764;28;20832;-69
2022/04/14 05:09:14;;;;;;;41.23;21.53;;;11.80;99.90;;;;;;5038829;28;20604;-69
2022/04/14 05:11:42;;;;;;;36.07;20.30;;;11.90;99.90;;;;;;5038801;28;20486;-70
2022/04/14 05:14:11;;;;;;;51.47;23.27;;;11.90;99.90;;;;;;5038918;28;20501;-71
2022/04/14 05:16:38;;;;;;;45.10;24.77;;;12.00;99.90;;;;;;5039863;28;20444;-69
2022/04/14 05:19:06;;;;;;;45.47;23.37;;;12.00;99.90;;;;;;5039783;28;20456;-71
2022/04/14 05:21:34;;;;;;;47.40;23.53;;;12.10;99.90;;;;;;5039078;27;20482;-69
2022/04/14 05:24:07;;;;;;;45.20;23.73;;;12.10;99.90;;;;;;5040787;28;20487;-71
2022/04/14 05:26:36;;;;;;;47.13;23.70;;;12.20;99.90;;;;;;5040388;28;20663;-69
2022/04/14 05:29:04;;;;;;;52.07;27.87;;;12.20;99.90;;;;;;5040835;28;20520;-70
2022/04/14 05:31:32;;;;;;;43.90;23.60;;;12.30;99.90;;;;;;5042967;27;20727;-70
2022/04/14 05:34:00;;;;;;;41.50;23.43;;;12.30;99.90;;;;;;5040108;27;20448;-72
2022/04/14 05:36:28;;;;;;;45.33;25.50;;;12.40;99.90;;;;;;5040109;28;21057;-68
2022/04/14 05:38:55;;;;;;;42.23;23.27;;;12.40;99.90;;;;;;5040164;28;20528;-70
2022/04/14 05:41:25;;;;;;;44.87;24.67;;;12.40;99.90;;;;;;5037983;27;20507;-68
2022/04/14 05:43:52;;;;;;;39.07;21.63;;;12.50;99.90;;;;;;5039010;28;20453;-68
2022/04/14 05:46:20;;;;;;;37.70;21.80;;;12.50;99.90;;;;;;5038230;28;20444;-69
2022/04/14 05:48:49;;;;;;;43.63;24.37;;;12.60;99.90;;;;;;5038309;28;20825;-69
2022/04/14 05:51:18;;;;;;;43.30;24.17;;;12.60;99.90;;;;;;5038145;28;20499;-68
2022/04/14 05:53:49;;;;;;;45.43;25.80;;;12.60;99.90;;;;;;5037603;28;20899;-68
2022/04/14 05:56:17;;;;;;;36.73;23.60;;;12.60;99.90;;;;;;5037713;28;20486;-66
2022/04/14 05:58:46;;;;;;;40.87;25.07;;;12.70;99.90;;;;;;5037543;28;20809;-68
2022/04/14 06:01:14;;;;;;;49.30;27.83;;;12.70;99.90;;;;;;5037813;28;20547;-67
2022/04/14 06:03:42;;;;;;;51.17;27.80;;;12.80;99.90;;;;;;5040414;27;20472;-68
2022/04/14 06:06:12;;;;;;;43.10;24.97;;;12.90;99.90;;;;;;5058527;28;20540;-68
2022/04/14 06:08:40;;;;;;;37.00;24.80;;;12.90;99.90;;;;;;5047602;28;20441;-72
2022/04/14 06:11:09;;;;;;;44.00;26.10;;;13.00;99.90;;;;;;5038409;28;20468;-70
2022/04/14 06:13:36;;;;;;;41.77;26.03;;;12.90;99.90;;;;;;5038516;28;20456;-70
2022/04/14 06:16:07;;;;;;;43.23;26.43;;;12.90;99.90;;;;;;5039187;28;20553;-70
2022/04/14 06:18:37;;;;;;;40.57;27.20;;;12.80;99.90;;;;;;5042098;28;20453;-70
2022/04/14 06:21:05;;;;;;;42.53;25.60;;;12.90;99.90;;;;;;5040948;28;20492;-70
2022/04/14 06:23:32;;;;;;;43.20;27.33;;;12.80;99.90;;;;;;5038449;28;20444;-69
2022/04/14 06:26:00;;;;;;;49.13;28.27;;;12.80;99.90;;;;;;5037798;28;20727;-69
2022/04/14 06:28:28;;;;;;;37.20;24.13;;;12.80;99.90;;;;;;5037933;28;20535;-70
2022/04/14 06:30:56;;;;;;;41.77;26.37;;;12.90;99.90;;;;;;5038922;28;20571;-69
2022/04/14 06:33:30;;;;;;;41.17;26.40;;;13.00;99.90;;;;;;5037690;28;20487;-69
2022/04/14 06:35:59;;;;;;;39.33;24.07;;;13.00;99.90;;;;;;5038246;28;20484;-70
2022/04/14 06:38:27;;;;;;;46.37;28.37;;;13.00;99.90;;;;;;5037990;28;20862;-70
2022/04/14 06:40:55;;;;;;;40.67;25.93;;;13.10;99.90;;;;;;5038200;28;20472;-69
2022/04/14 06:43:24;;;;;;;40.27;25.00;;;13.10;99.90;;;;;;5038684;28;20448;-69
2022/04/14 06:45:52;;;;;;;38.20;24.83;;;13.20;99.90;;;;;;5038173;28;20551;-70
2022/04/14 06:48:20;;;;;;;37.13;24.70;;;13.30;99.90;;;;;;5037457;27;20522;-69
2022/04/14 06:50:50;;;;;;;39.00;25.70;;;13.40;99.90;;;;;;5037451;28;20456;-70
2022/04/14 06:53:18;;;;;;;36.23;25.57;;;13.50;99.90;;;;;;5037625;28;20667;-70
2022/04/14 06:55:47;;;;;;;36.57;24.60;;;13.50;99.90;;;;;;5038775;28;20480;-71
2022/04/14 06:58:16;;;;;;;38.53;25.93;;;13.60;99.90;;;;;;5039650;28;20453;-69
2022/04/14 07:00:44;;;;;;;40.10;28.23;;;13.60;99.90;;;;;;5038927;28;21141;-68
2022/04/14 07:03:12;;;;;;;44.17;28.10;;;13.70;99.90;;;;;;5038325;28;20448;-70
2022/04/14 07:05:40;;;;;;;41.80;27.63;;;13.70;99.90;;;;;;5038538;28;20487;-70
2022/04/14 07:08:10;;;;;;;41.70;29.90;;;13.70;99.90;;;;;;5033810;28;20464;-73
2022/04/14 07:10:38;;;;;;;44.63;30.67;;;13.80;99.90;;;;;;5028378;28;20529;-70
2022/04/14 07:13:10;;;;;;;44.40;32.37;;;13.70;99.90;;;;;;5024122;28;21094;-69
2022/04/14 07:15:38;;;;;;;39.30;29.87;;;13.70;99.90;;;;;;5022585;27;20851;-69
2022/04/14 07:18:07;;;;;;;43.53;32.20;;;13.70;99.90;;;;;;5020669;28;20728;-70
2022/04/14 07:20:35;;;;;;;42.47;28.87;;;13.70;99.90;;;;;;4998518;28;20462;-70
2022/04/14 07:23:03;;;;;;;44.97;30.00;;;13.80;99.90;;;;;;4998078;28;21065;-69
2022/04/14 07:25:34;;;;;;;44.37;30.47;;;13.80;99.90;;;;;;5032129;28;20453;-71
2022/04/14 07:28:03;;;;;;;46.83;32.53;;;13.90;99.90;;;;;;5026230;28;20817;-71
2022/04/14 07:30:31;;;;;;;41.17;30.90;;;13.90;99.90;;;;;;5019273;27;20599;-70
2022/04/14 07:33:00;;;;;;;39.13;31.10;;;14.00;99.90;;;;;;5022539;28;20453;-71
2022/04/14 07:35:28;;;;;;;41.27;28.27;;;14.00;99.90;;;;;;5036072;28;20497;-68
2022/04/14 07:37:56;;;;;;;36.63;25.90;;;14.10;99.90;;;;;;5036981;28;20547;-69
2022/04/14 07:40:25;;;;;;;38.27;29.30;;;14.20;99.90;;;;;;5037703;28;20456;-66
2022/04/14 07:42:56;;;;;;;34.07;27.90;;;14.20;99.90;;;;;;5036328;28;20458;-68
2022/04/14 07:45:25;;;;;;;36.37;27.73;;;14.30;99.90;;;;;;5035948;27;20732;-67
2022/04/14 07:47:53;;;;;;;32.40;27.33;;;14.30;99.90;;;;;;5017683;28;21061;-67
2022/04/14 07:50:22;;;;;;;40.40;29.93;;;14.20;99.90;;;;;;5017175;28;20908;-65
2022/04/14 07:52:51;;;;;;;38.63;31.13;;;14.10;99.90;;;;;;5104481;27;20440;-66
2022/04/14 07:55:21;;;;;;;42.70;32.00;;;14.10;99.90;;;;;;5108895;28;20440;-66
2022/04/14 07:57:49;;;;;;;44.77;30.90;;;14.20;99.90;;;;;;5031026;28;20521;-66
2022/04/14 08:00:19;;;;;;;37.33;28.93;;;14.20;99.90;;;;;;5028833;28;20986;-69
2022/04/14 08:02:49;;;;;;;38.83;31.70;;;14.30;99.90;;;;;;5039897;28;20675;-65
2022/04/14 08:05:17;;;;;;;34.60;29.60;;;14.30;99.90;;;;;;5027501;28;20475;-67
2022/04/14 08:07:45;;;;;;;38.20;28.90;;;14.40;99.90;;;;;;5041029;28;20432;-67
2022/04/14 08:10:13;;;;;;;34.97;28.17;;;14.50;99.90;;;;;;5015477;27;20556;-66
2022/04/14 08:12:41;;;;;;;37.87;29.30;;;14.60;99.90;;;;;;5036064;28;20821;-66
2022/04/14 08:15:11;;;;;;;35.33;27.50;;;14.70;99.90;;;;;;5040557;28;20539;-66
2022/04/14 08:17:41;;;;;;;31.13;27.77;;;14.70;99.90;;;;;;5040620;28;20847;-66
2022/04/14 08:20:11;;;;;;;34.70;28.67;;;14.90;99.90;;;;;;5026079;28;20679;-67
2022/04/14 08:22:47;;;;;;;41.10;31.70;;;15.00;99.90;;;;;;5021652;28;20889;-66
2022/04/14 08:25:16;;;;;;;41.53;34.57;;;15.10;99.90;;;;;;5025640;28;21128;-66
2022/04/14 08:27:44;;;;;;;40.53;33.60;;;15.20;99.90;;;;;;5040519;27;20449;-67
2022/04/14 08:30:12;;;;;;;40.53;31.50;;;15.20;99.90;;;;;;5029942;28;20793;-66
2022/04/14 08:32:42;;;;;;;33.83;29.00;;;15.20;99.90;;;;;;5025223;28;20523;-66
2022/04/14 08:35:11;;;;;;;39.13;29.30;;;15.30;99.90;;;;;;5040063;28;20915;-69
2022/04/14 08:37:40;;;;;;;30.03;24.23;;;15.30;99.90;;;;;;5022825;27;20499;-66
2022/04/14 08:40:11;;;;;;;27.33;22.23;;;15.20;99.90;;;;;;5019416;28;20459;-66
2022/04/14 08:42:40;;;;;;;27.80;23.20;;;15.20;99.90;;;;;;5020250;28;21072;-67
2022/04/14 08:45:11;;;;;;;25.07;21.30;;;15.20;99.90;;;;;;5019361;28;21039;-66
2022/04/14 08:47:41;;;;;;;29.10;21.67;;;15.10;99.90;;;;;;5020047;28;20619;-66
2022/04/14 08:50:12;;;;;;;26.67;21.03;;;15.10;99.90;;;;;;5019965;28;20461;-66
2022/04/14 08:52:43;;;;;;;26.20;19.90;;;15.00;99.90;;;;;;5019967;28;20830;-66
2022/04/14 08:55:14;;;;;;;24.63;19.80;;;14.90;99.90;;;;;;5020349;28;20532;-67
2022/04/14 08:57:43;;;;;;;24.23;21.07;;;14.90;99.90;;;;;;5019838;28;21010;-67
2022/04/14 09:00:13;;;;;;;34.80;20.30;;;14.90;99.90;;;;;;5019848;28;20970;-65
2022/04/14 09:02:45;;;;;;;22.63;19.90;;;14.80;99.90;;;;;;5021004;28;20948;-67
2022/04/14 09:05:14;;;;;;;33.40;20.83;;;14.80;99.90;;;;;;5020735;28;20617;-67
2022/04/14 09:07:44;;;;;;;22.60;20.00;;;14.80;99.90;;;;;;5020755;28;20810;-67
2022/04/14 09:10:12;;;;;;;24.43;20.10;;;14.90;99.90;;;;;;5020551;28;20441;-66
2022/04/14 09:12:43;;;;;;;22.27;19.83;;;15.00;99.90;;;;;;5020569;28;20494;-66
2022/04/14 09:15:20;;;;;;;25.23;20.03;;;15.00;99.90;;;;;;5019993;28;20565;-68
2022/04/14 09:17:52;;;;;;;24.07;19.77;;;15.00;99.90;;;;;;5018913;28;20724;-66
2022/04/14 09:20:33;;;;;;;20.10;17.73;;;15.20;99.90;;;;;;5019757;28;20894;-66
2022/04/14 09:23:11;;;;;;;23.87;20.37;;;15.30;99.90;;;;;;5027041;28;20815;-67
2022/04/14 09:25:39;;;;;;;21.30;19.03;;;15.40;99.90;;;;;;5029324;27;20561;-65
2022/04/14 09:28:11;;;;;;;25.40;19.13;;;15.60;99.90;;;;;;5029062;28;20476;-66
2022/04/14 09:30:39;;;;;;;21.47;19.27;;;15.60;99.90;;;;;;5027383;28;20825;-66
2022/04/14 09:33:15;;;;;;;25.43;20.47;;;15.50;99.90;;;;;;5024916;28;20441;-66
2022/04/14 09:36:09;;;;;;;22.47;18.50;;;15.60;99.90;;;;;;5021658;28;20821;-66
2022/04/14 09:38:50;;;;;;;22.07;16.90;;;15.70;99.90;;;;;;5018621;28;20757;-68
2022/04/14 09:41:38;;;;;;;23.63;18.03;;;15.80;99.90;;;;;;5020772;28;20595;-66
2022/04/14 09:44:08;;;;;;;24.47;16.00;;;15.70;99.90;;;;;;5031239;28;20701;-64
2022/04/14 09:46:37;;;;;;;18.40;15.20;;;15.70;99.90;;;;;;5025880;28;20464;-65
2022/04/14 09:49:09;;;;;;;21.13;16.07;;;15.70;99.90;;;;;;5015243;28;20446;-65
2022/04/14 09:51:38;;;;;;;18.00;16.03;;;15.80;99.90;;;;;;5022489;28;20465;-66
2022/04/14 09:54:15;;;;;;;22.10;16.70;;;15.70;99.90;;;;;;5019375;28;20533;-65
2022/04/14 09:56:46;;;;;;;17.93;15.37;;;15.60;99.90;;;;;;5020095;27;20461;-65
2022/04/14 09:59:16;;;;;;;20.90;16.00;;;15.60;99.90;;;;;;5019160;28;20536;-64
2022/04/14 10:01:44;;;;;;;17.77;15.90;;;15.50;99.90;;;;;;5019170;28;20497;-71
2022/04/14 10:04:33;;;;;;;15.67;13.57;;;15.40;99.90;;;;;;5018609;28;20456;-68
2022/04/14 10:07:07;;;;;;;17.73;14.27;;;15.30;99.90;;;;;;5018728;27;20449;-66
2022/04/14 10:09:35;;;;;;;15.00;13.30;;;15.20;99.90;;;;;;5019201;28;20696;-67
2022/04/14 10:12:04;;;;;;;17.17;13.50;;;15.20;99.90;;;;;;5018985;28;20993;-66
2022/04/14 10:14:35;;;;;;;16.53;14.30;;;15.20;99.90;;;;;;5018715;28;20897;-69
2022/04/14 10:17:05;;;;;;;15.30;13.70;;;15.10;99.90;;;;;;5020505;28;20468;-69
2022/04/14 10:19:36;;;;;;;17.43;13.63;;;15.00;99.90;;;;;;5019596;27;20465;-68
2022/04/14 10:22:06;;;;;;;16.30;14.07;;;14.90;99.90;;;;;;5021173;27;20529;-67
2022/04/14 10:24:35;;;;;;;15.83;13.50;;;14.80;99.90;;;;;;5019324;28;21281;-73
2022/04/14 10:27:05;;;;;;;15.10;13.50;;;14.90;99.90;;;;;;5020897;28;20464;-71
2022/04/14 10:29:33;;;;;;;16.30;13.50;;;14.90;99.90;;;;;;5021044;28;20456;-67
2022/04/14 10:32:03;;;;;;;17.60;14.30;;;15.00;99.90;;;;;;5020719;28;21065;-67
2022/04/14 10:34:32;;;;;;;15.57;13.60;;;15.10;99.90;;;;;;5043181;28;20440;-73
2022/04/14 10:37:02;;;;;;;13.97;12.67;;;15.20;99.90;;;;;;5039266;27;20462;-71
2022/04/14 10:39:36;;;;;;;14.43;12.80;;;15.30;99.90;;;;;;5039368;28;20451;-70
2022/04/14 10:42:06;;;;;;;15.20;13.20;;;15.40;99.90;;;;;;5040116;28;20472;-72
2022/04/14 10:44:45;;;;;;;15.10;12.57;;;15.50;99.90;;;;;;5046491;27;20540;-72
2022/04/14 10:47:32;;;;;;;13.60;12.30;;;15.60;99.90;;;;;;5016260;28;20960;-72
2022/04/14 10:50:00;;;;;;;11.43;10.33;;;15.70;99.90;;;;;;5024316;28;20441;-71
2022/04/14 10:52:34;;;;;;;13.80;12.00;;;15.80;99.90;;;;;;5021758;28;20828;-71
2022/04/14 10:55:03;;;;;;;12.83;11.50;;;16.00;99.90;;;;;;5019729;28;21056;-72
2022/04/14 10:57:41;;;;;;;15.17;12.03;;;16.30;99.90;;;;;;5018392;28;20484;-71
2022/04/14 11:00:33;;;;;;;14.23;12.40;;;16.60;99.90;;;;;;5024956;27;20541;-71
2022/04/14 11:03:11;;;;;;;12.47;11.27;;;16.80;99.90;;;;;;5038589;28;20547;-73
2022/04/14 11:05:44;;;;;;;12.73;11.10;;;17.10;99.90;;;;;;5038079;27;20523;-71
2022/04/14 11:08:24;;;;;;;12.43;11.13;;;17.30;99.90;;;;;;5037884;28;20980;-72
2022/04/14 11:11:11;;;;;;;11.27;10.07;;;17.50;99.90;;;;;;5035519;28;20986;-67
2022/04/14 11:14:07;;;;;;;12.00;10.90;;;17.60;99.90;;;;;;5024876;27;20959;-69
2022/04/14 11:16:44;;;;;;;10.50;9.40;;;17.60;99.90;;;;;;5037721;27;20535;-69
2022/04/14 11:19:25;;;;;;;12.17;10.67;;;17.50;99.90;;;;;;5037995;28;20925;-69
2022/04/14 11:22:06;;;;;;;10.27;9.30;;;17.50;99.90;;;;;;5038335;28;20464;-69
2022/04/14 11:24:40;;;;;;;13.33;9.93;;;17.50;99.90;;;;;;5037076;28;20488;-70
2022/04/14 11:27:16;;;;;;;11.00;9.93;;;17.40;99.90;;;;;;5037298;28;20520;-69
2022/04/14 11:29:45;;;;;;;11.33;10.23;;;17.30;99.90;;;;;;5037386;27;20579;-69
2022/04/14 11:32:15;;;;;;;12.00;10.03;;;17.20;99.90;;;;;;5037037;27;20982;-69
2022/04/14 11:35:13;;;;;;;11.27;9.47;;;17.20;99.90;;;;;;5037548;28;20447;-69
2022/04/14 11:37:43;;;;;;;12.23;10.10;;;17.20;99.90;;;;;;5036740;28;20533;-69
2022/04/14 11:40:14;;;;;;;9.80;8.70;;;17.30;99.90;;;;;;5038090;28;20440;-70
2022/04/14 11:42:42;;;;;;;9.60;8.60;;;17.20;99.90;;;;;;5037292;28;20727;-69
2022/04/14 11:45:10;;;;;;;10.97;9.87;;;17.20;99.90;;;;;;5037206;28;20559;-70
2022/04/14 11:47:42;;;;;;;9.57;8.77;;;17.10;99.90;;;;;;5036867;28;20433;-71
2022/04/14 11:50:10;;;;;;;11.30;10.30;;;17.10;99.90;;;;;;5036393;28;20456;-70
2022/04/14 11:52:38;;;;;;;10.50;9.40;;;17.20;99.90;;;;;;5037154;28;20474;-70
2022/04/14 11:55:07;;;;;;;9.40;8.50;;;17.30;99.90;;;;;;5036349;28;20582;-70
2022/04/14 11:57:38;;;;;;;9.73;8.63;;;17.40;99.90;;;;;;5036073;28;20451;-70
2022/04/14 12:00:11;;;;;;;9.97;8.70;;;17.60;99.90;;;;;;5036566;28;20679;-71
2022/04/14 12:02:39;;;;;;;8.50;7.70;;;17.70;99.90;;;;;;5036396;28;20453;-69
2022/04/14 12:05:08;;;;;;;9.87;8.90;;;17.90;99.90;;;;;;5036634;28;20992;-70
2022/04/14 12:07:36;;;;;;;10.10;8.30;;;18.10;99.90;;;;;;5036444;27;20869;-70
2022/04/14 12:10:06;;;;;;;7.50;6.90;;;18.20;99.90;;;;;;5037213;27;20589;-69
2022/04/14 12:12:39;;;;;;;8.63;7.80;;;18.40;99.90;;;;;;5037524;28;20443;-71
2022/04/14 12:15:08;;;;;;;7.93;7.23;;;18.40;99.90;;;;;;5035910;28;20447;-65
2022/04/14 12:17:37;;;;;;;8.50;7.70;;;18.50;99.90;;;;;;5036766;27;21003;-69
2022/04/14 12:20:07;;;;;;;8.90;8.10;;;18.40;99.90;;;;;;5036220;28;20816;-69
2022/04/14 12:22:38;;;;;;;8.57;7.87;;;18.40;99.90;;;;;;5036774;28;20468;-69
2022/04/14 12:25:09;;;;;;;7.80;7.10;;;18.40;99.90;;;;;;5036905;28;20681;-66
2022/04/14 12:27:39;;;;;;;9.07;7.97;;;18.50;99.90;;;;;;5037147;28;20434;-69
2022/04/14 12:30:10;;;;;;;7.90;7.20;;;18.60;99.90;;;;;;5037524;27;20518;-71
2022/04/14 12:32:43;;;;;;;7.60;6.93;;;18.60;99.90;;;;;;5036651;28;20487;-69
2022/04/14 12:35:12;;;;;;;8.00;7.20;;;18.40;99.90;;;;;;5036652;28;20740;-69
2022/04/14 12:37:41;;;;;;;7.77;7.07;;;18.20;99.90;;;;;;5032857;28;20466;-68
2022/04/14 12:40:13;;;;;;;8.63;7.80;;;18.10;99.90;;;;;;5027719;28;21260;-69
2022/04/14 12:42:43;;;;;;;7.10;6.50;;;17.90;99.90;;;;;;5037279;28;20515;-68
2022/04/14 12:45:13;;;;;;;7.53;6.60;;;17.90;99.90;;;;;;5036632;28;20448;-68